Meath Environmental Platform

Observations for Trim Market St

Time AQI Temp °C Hum % Pres Pa CO μg/m³ H₂S μg/m³ NO μg/m³ NO₂ μg/m³ O₃ μg/m³ SO₂ μg/m³ PM1 μg/m³ PM2.5 μg/m³ PM10 μg/m³
Thursday 9 July 2026
18:48 1 30 43 64,141 0 13.94 0 18.61 2.79 0 0.71 3.29 3.62
18:47 1 30.1 43 64,163 0 16.78 0 17.48 10.28 0 0 2.24 2.46
18:46 1 30.1 43 64,220 0 15.14 0 12.31 12.42 0 0 2.25 2.47
18:45 1 30.1 42 64,266 0 16.05 0 13.62 13.17 0 0 2.77 3.05
18:44 1 30.1 42 64,323 0 13.8 0 16.33 20.39 0 0 2.78 3.06
18:43 1 30.2 42 64,394 0 12.81 0 14.81 4.98 0 0 2.78 3.06
18:42 1 30.2 42 64,415 0 18.49 0 16.62 8.59 0 0 2.79 3.07
18:41 1 30.2 42 64,419 1.55 21.87 0 21.84 0 2.04 0.71 2.79 3.56
18:40 1 30.2 42 64,421 0 13.53 0 17.95 6.46 0 2.14 3.85 4.23
18:39 1 30.3 42 64,419 0 13.66 0 15.62 7.73 0 0.71 2.8 3.08
18:37 1 30.4 42 64,427 0 17.92 0 12.23 14.15 0.17 0.71 3.34 3.55
18:35 1 30.5 42 64,517 0 15.79 0 12.22 12.28 0 0.71 2.82 3.1
18:30 1 30.8 41 64,856 0 18.43 0 12.28 16.24 0 0 2.3 2.53
18:29 1 30.9 41 64,958 0 18.13 0 13.25 13.33 0 0 2.83 3.11
18:21 1 31.3 40 65,205 0 19.53 0 14.34 8.77 1.3 0.71 3.4 3.74
18:20 1 31.3 40 65,188 0 21.23 0 13.94 11.34 1 0 2.87 3.16
18:19 1 31.4 40 65,228 0 22.81 0 13.63 12.75 1.32 0.71 2.87 3.16
18:18 1 31.5 40 65,276 0 22.1 0 13.91 15.07 0.72 0 2.88 3.17
18:17 1 31.5 40 65,341 0 18.37 0 14.11 6.23 0.77 0 2.88 3.17
18:16 1 31.6 40 65,368 0 19.36 0 18.1 9.83 0 0 2.88 3.17